Terminal Aerodrome Forecast
Issued by NWS Twin Cities, MN

Home | Current Version | Previous Version | Text Only | Print | Product List | Glossary Off
Versions: 1 2 3 4 5 6 7 8 9 10 11 12 13 14 15 16 17 18 19 20 21 22 23 24 25 26 27

000
FTUS43 KMPX 250859 AAB
TAFMSP
TAF AMD
KMSP 250859Z 2509/2612 18009KT 2SM BR OVC005
     FM251200 24014G22KT P6SM BKN012
     FM251700 27022G32KT P6SM BKN020
     FM260100 29016G23KT P6SM BKN035
     FM260600 30013G20KT P6SM SKC=

USA.gov is the U.S. government's official web portal to all federal, state and local government web resources and services.